createdAt,value
2022-09-04T00:00:14.120Z,98062.09
2022-09-04T00:03:18.938Z,98068.97
2022-09-04T00:05:54.431Z,98075.31
2022-09-04T00:08:49.403Z,98074.72
2022-09-04T00:11:43.279Z,98076.56
2022-09-04T00:14:18.433Z,98073.09
2022-09-04T00:16:58.495Z,98080.47
2022-09-04T00:19:36.359Z,98087.41
2022-09-04T00:22:21.635Z,98085.78
2022-09-04T00:25:00.509Z,98086.03
2022-09-04T00:27:44.289Z,98080.47
2022-09-04T00:30:21.534Z,98085.78
2022-09-04T00:33:02.557Z,98080.28
2022-09-04T00:35:36.944Z,98087.41
2022-09-04T00:38:14.866Z,98088.44
2022-09-04T00:40:48.343Z,98090.84
2022-09-04T00:44:30.997Z,98095.09
2022-09-04T00:47:53.197Z,98101.19
2022-09-04T00:51:16.205Z,98101.19
2022-09-04T00:54:29.508Z,98092.69
2022-09-04T00:57:46.143Z,98099.56
2022-09-04T01:00:17.309Z,98103.28
2022-09-04T01:03:30.258Z,98104.84
2022-09-04T01:06:32.966Z,98111.78
2022-09-04T01:09:53.649Z,98114.31
2022-09-04T01:12:38.530Z,98116.97
2022-09-04T01:15:20.348Z,98119.84
2022-09-04T01:18:05.253Z,98119.03
2022-09-04T01:20:58.051Z,98121.69
2022-09-04T01:24:00.335Z,98120.09
2022-09-04T01:26:42.018Z,98115.56
2022-09-04T01:29:29.085Z,98128.59
2022-09-04T01:32:11.932Z,98125.38
2022-09-04T01:34:51.831Z,98130.41
2022-09-04T01:37:47.630Z,98126.75
2022-09-04T01:40:42.517Z,98131.44
2022-09-04T01:43:17.635Z,98131.78
2022-09-04T01:46:39.622Z,98143.66
2022-09-04T01:49:20.884Z,98141.59
2022-09-04T01:52:03.950Z,98142.84
2022-09-04T01:54:54.174Z,98143.66
2022-09-04T01:57:46.522Z,98150.56
2022-09-04T02:00:22.145Z,98148.13
2022-09-04T02:03:07.894Z,98139.97
2022-09-04T02:06:00.518Z,98138.69
2022-09-04T02:08:56.727Z,98142.63
2022-09-04T02:11:29.853Z,98146.88
2022-09-04T02:14:32.775Z,98141.25
2022-09-04T02:17:14.497Z,98136.19
2022-09-04T02:20:04.368Z,98139.63
2022-09-04T02:22:46.536Z,98142.50
2022-09-04T02:25:29.715Z,98144.94
2022-09-04T02:28:24.000Z,98145.75
2022-09-04T02:31:06.971Z,98146.41
2022-09-04T02:33:49.949Z,98146.41
2022-09-04T02:36:29.128Z,98147.44
2022-09-04T02:39:12.010Z,98150.91
2022-09-04T02:41:54.749Z,98149.63
2022-09-04T02:44:42.144Z,98147.78
2022-09-04T02:47:31.610Z,98154.16
2022-09-04T02:50:15.888Z,98151.72
2022-09-04T02:53:03.228Z,98146.97
2022-09-04T02:55:53.943Z,98155.97
2022-09-04T02:58:44.580Z,98149.06
2022-09-04T03:01:22.539Z,98154.91
2022-09-04T03:04:04.294Z,98154.91
2022-09-04T03:06:53.377Z,98155.50
2022-09-04T03:09:31.602Z,98149.19
2022-09-04T03:12:26.731Z,98146.53
2022-09-04T03:15:06.488Z,98144.47
2022-09-04T03:17:47.701Z,98157.91
2022-09-04T03:20:23.331Z,98154.47
2022-09-04T03:23:03.214Z,98149.19
2022-09-04T03:25:55.739Z,98152.88
2022-09-04T03:28:42.527Z,98155.50
2022-09-04T03:31:28.670Z,98152.63
2022-09-04T03:34:20.993Z,98151.59
2022-09-04T03:37:19.650Z,98153.44
2022-09-04T03:40:10.431Z,98160.34
2022-09-04T03:42:58.037Z,98160.34
2022-09-04T03:45:40.997Z,98161.97
2022-09-04T03:48:27.754Z,98161.97
2022-09-04T03:51:06.232Z,98159.31
2022-09-04T03:53:45.319Z,98162.44
2022-09-04T03:57:01.193Z,98163.19
2022-09-04T03:59:56.714Z,98165.16
2022-09-04T04:02:55.834Z,98166.22
2022-09-04T04:05:39.805Z,98169.66
2022-09-04T04:08:38.897Z,98170.91
2022-09-04T04:11:35.212Z,98175.66
2022-09-04T04:14:52.556Z,98177.94
2022-09-04T04:17:49.079Z,98174.69
2022-09-04T04:20:38.256Z,98172.53
2022-09-04T04:23:49.022Z,98177.81
2022-09-04T04:26:40.544Z,98183.91
2022-09-04T04:30:02.030Z,98186.00
2022-09-04T04:33:07.263Z,98188.84
2022-09-04T04:35:48.354Z,98185.41
2022-09-04T04:38:40.674Z,98191.75
2022-09-04T04:41:31.919Z,98194.59
2022-09-04T04:44:16.826Z,98194.59
2022-09-04T04:47:07.449Z,98194.59
2022-09-04T04:50:06.559Z,98196.69
2022-09-04T04:52:55.055Z,98206.09
2022-09-04T04:55:40.679Z,98205.28
2022-09-04T04:58:53.998Z,98220.34
2022-09-04T05:01:44.478Z,98218.72
2022-09-04T05:04:30.138Z,98219.97
2022-09-04T05:07:08.580Z,98227.69
2022-09-04T05:09:49.101Z,98234.81
2022-09-04T05:12:32.085Z,98229.72
2022-09-04T05:15:10.138Z,98244.00
2022-09-04T05:17:51.763Z,98239.75
2022-09-04T05:20:37.215Z,98245.03
2022-09-04T05:23:28.636Z,98244.56
2022-09-04T05:26:12.270Z,98250.47
2022-09-04T05:28:57.674Z,98261.03
2022-09-04T05:31:43.219Z,98258.41
2022-09-04T05:34:29.197Z,98261.03
2022-09-04T05:37:14.922Z,98266.53
2022-09-04T05:40:03.189Z,98264.09
2022-09-04T05:43:00.357Z,98271.34
2022-09-04T05:45:49.381Z,98270.16
2022-09-04T05:48:28.154Z,98281.88
2022-09-04T05:51:30.814Z,98279.69
2022-09-04T05:54:43.533Z,98290.31
2022-09-04T05:57:34.559Z,98294.38
2022-09-04T06:00:15.182Z,98288.84
2022-09-04T06:03:23.988Z,98294.28
2022-09-04T06:06:23.023Z,98297.28
2022-09-04T06:09:40.653Z,98300.31
2022-09-04T06:12:38.807Z,98305.13
2022-09-04T06:15:35.453Z,98296.19
2022-09-04T06:18:38.311Z,98302.59
2022-09-04T06:22:08.389Z,98312.53
2022-09-04T06:25:14.048Z,98305.41
2022-09-04T06:28:08.532Z,98309.88
2022-09-04T06:30:48.094Z,98318.44
2022-09-04T06:33:33.760Z,98315.56
2022-09-04T06:36:26.342Z,98316.16
2022-09-04T06:39:39.832Z,98318.84
2022-09-04T06:42:32.833Z,98326.13
2022-09-04T06:45:21.664Z,98335.91
2022-09-04T06:48:08.550Z,98334.66
2022-09-04T06:50:56.367Z,98341.47
2022-09-04T06:53:42.726Z,98347.69
2022-09-04T06:56:34.335Z,98343.59
2022-09-04T06:59:49.201Z,98339.22
2022-09-04T07:02:48.348Z,98344.41
2022-09-04T07:05:30.779Z,98345.22
2022-09-04T07:08:14.724Z,98347.88
2022-09-04T07:10:52.139Z,98347.19
2022-09-04T07:13:55.272Z,98344.66
2022-09-04T07:16:39.856Z,98351.13
2022-09-04T07:19:52.931Z,98346.19
2022-09-04T07:22:55.194Z,98350.19
2022-09-04T07:25:35.598Z,98351.38
2022-09-04T07:28:32.012Z,98352.75
2022-09-04T07:31:10.314Z,98348.03
2022-09-04T07:33:54.731Z,98354.72
2022-09-04T07:36:36.066Z,98360.16
2022-09-04T07:39:17.881Z,98360.72
2022-09-04T07:42:00.536Z,98367.16
2022-09-04T07:44:40.660Z,98367.75
2022-09-04T07:47:19.759Z,98369.16
2022-09-04T07:50:03.206Z,98372.34
2022-09-04T07:53:17.563Z,98367.19
2022-09-04T07:55:48.229Z,98377.09
2022-09-04T07:58:44.960Z,98371.13
2022-09-04T08:02:01.146Z,98369.88
2022-09-04T08:05:21.866Z,98371.03
2022-09-04T08:08:28.432Z,98376.44
2022-09-04T08:11:54.957Z,98371.25
2022-09-04T08:14:56.122Z,98374.25
2022-09-04T08:18:15.188Z,98377.84
2022-09-04T08:21:08.325Z,98387.72
2022-09-04T08:24:39.401Z,98387.59
2022-09-04T08:27:25.059Z,98386.69
2022-09-04T08:30:08.437Z,98388.63
2022-09-04T08:33:17.107Z,98393.00
2022-09-04T08:36:01.568Z,98398.97
2022-09-04T08:39:07.492Z,98393.59
2022-09-04T08:42:43.701Z,98395.03
2022-09-04T08:46:04.816Z,98389.59
2022-09-04T08:49:21.375Z,98396.19
2022-09-04T08:52:43.441Z,98398.25
2022-09-04T08:55:51.782Z,98393.13
2022-09-04T08:59:12.092Z,98389.84
2022-09-04T09:02:41.343Z,98389.81
2022-09-04T09:06:13.435Z,98392.19
2022-09-04T09:09:34.439Z,98386.81
2022-09-04T09:13:00.232Z,98392.06
2022-09-04T09:15:55.071Z,98392.50
2022-09-04T09:18:40.539Z,98389.47
2022-09-04T09:21:25.976Z,98387.13
2022-09-04T09:24:36.271Z,98393.41
2022-09-04T09:27:54.932Z,98386.63
2022-09-04T09:30:25.173Z,98392.09
2022-09-04T09:33:42.975Z,98381.88
2022-09-04T09:37:03.627Z,98391.34
2022-09-04T09:40:33.016Z,98393.09
2022-09-04T09:44:00.953Z,98387.13
2022-09-04T09:47:35.555Z,98390.19
2022-09-04T09:50:47.682Z,98397.16
2022-09-04T09:54:16.418Z,98398.28
2022-09-04T09:57:34.205Z,98394.94
2022-09-04T10:00:23.961Z,98396.38
2022-09-04T10:03:48.847Z,98396.41
2022-09-04T10:06:57.583Z,98401.75
2022-09-04T10:10:04.594Z,98391.41
2022-09-04T10:13:31.307Z,98389.84
2022-09-04T10:16:43.869Z,98394.19
2022-09-04T10:20:09.586Z,98381.44
2022-09-04T10:23:16.357Z,98390.28
2022-09-04T10:26:38.355Z,98398.63
2022-09-04T10:30:02.304Z,98394.16
2022-09-04T10:33:11.877Z,98395.84
2022-09-04T10:36:00.821Z,98398.56
2022-09-04T10:39:01.101Z,98401.75
2022-09-04T10:42:02.593Z,98394.88
2022-09-04T10:45:12.070Z,98392.28
2022-09-04T10:48:41.888Z,98389.09
2022-09-04T10:51:59.087Z,98385.44
2022-09-04T10:55:21.734Z,98390.81
2022-09-04T10:58:40.002Z,98395.63
2022-09-04T11:02:09.253Z,98389.28
2022-09-04T11:05:30.379Z,98397.34
2022-09-04T11:08:39.081Z,98393.06
2022-09-04T11:11:42.475Z,98394.75
2022-09-04T11:15:10.744Z,98390.50
2022-09-04T11:18:23.845Z,98385.72
2022-09-04T11:21:46.968Z,98385.22
2022-09-04T11:25:19.179Z,98390.28
2022-09-04T11:28:15.920Z,98387.94
2022-09-04T11:31:14.754Z,98381.28
2022-09-04T11:34:42.312Z,98388.53
2022-09-04T11:38:06.859Z,98379.75
2022-09-04T11:41:48.588Z,98387.00
2022-09-04T11:45:03.752Z,98381.94
2022-09-04T11:48:27.748Z,98373.94
2022-09-04T11:51:57.953Z,98375.31
2022-09-04T11:54:55.882Z,98384.44
2022-09-04T11:57:37.253Z,98379.38
2022-09-04T12:00:13.472Z,98381.53
2022-09-04T12:03:53.721Z,98380.47
2022-09-04T12:06:51.308Z,98388.78
2022-09-04T12:10:02.405Z,98386.63
2022-09-04T12:12:58.726Z,98392.00
2022-09-04T12:16:13.112Z,98391.97
2022-09-04T12:19:31.087Z,98399.72
2022-09-04T12:22:52.470Z,98397.59
2022-09-04T12:26:16.622Z,98402.19
2022-09-04T12:29:33.489Z,98403.81
2022-09-04T12:32:47.027Z,98402.25
2022-09-04T12:36:00.879Z,98401.50
2022-09-04T12:39:23.963Z,98399.66
2022-09-04T12:42:03.308Z,98403.69
2022-09-04T12:44:46.853Z,98402.34
2022-09-04T12:47:36.425Z,98403.19
2022-09-04T12:50:28.242Z,98410.41
2022-09-04T12:54:02.502Z,98412.53
2022-09-04T12:56:49.570Z,98411.75
2022-09-04T12:59:46.810Z,98405.63
2022-09-04T13:02:32.942Z,98399.53
2022-09-04T13:05:32.578Z,98400.31
2022-09-04T13:08:18.139Z,98403.00
2022-09-04T13:11:01.858Z,98403.81
2022-09-04T13:13:47.140Z,98400.34
2022-09-04T13:16:32.385Z,98408.41
2022-09-04T13:19:16.331Z,98405.75
2022-09-04T13:22:09.884Z,98410.81
2022-09-04T13:25:02.778Z,98406.56
2022-09-04T13:27:51.275Z,98412.97
2022-09-04T13:30:24.479Z,98419.38
2022-09-04T13:33:23.655Z,98411.88
2022-09-04T13:36:13.306Z,98411.13
2022-09-04T13:39:22.172Z,98410.56
2022-09-04T13:42:22.949Z,98406.28
2022-09-04T13:45:07.546Z,98397.69
2022-09-04T13:47:50.146Z,98401.69
2022-09-04T13:50:29.359Z,98405.88
2022-09-04T13:53:11.139Z,98405.03
2022-09-04T13:55:50.014Z,98397.97
2022-09-04T13:58:22.050Z,98399.22
2022-09-04T14:00:57.788Z,98393.59
2022-09-04T14:03:37.138Z,98402.13
2022-09-04T14:06:12.996Z,98395.94
2022-09-04T14:08:43.290Z,98403.44
2022-09-04T14:11:54.278Z,98401.06
2022-09-04T14:15:10.234Z,98395.09
2022-09-04T14:17:51.659Z,98391.56
2022-09-04T14:20:28.011Z,98392.09
2022-09-04T14:23:14.632Z,98396.03
2022-09-04T14:25:54.285Z,98388.19
2022-09-04T14:28:33.093Z,98387.88
2022-09-04T14:31:14.736Z,98377.69
2022-09-04T14:33:57.491Z,98382.50
2022-09-04T14:36:39.098Z,98384.59
2022-09-04T14:39:25.141Z,98381.00
2022-09-04T14:42:30.871Z,98381.13
2022-09-04T14:45:18.673Z,98384.88
2022-09-04T14:47:55.154Z,98379.41
2022-09-04T14:50:29.582Z,98386.84
2022-09-04T14:53:05.208Z,98386.22
2022-09-04T14:55:42.148Z,98385.72
2022-09-04T14:58:21.145Z,98385.94
2022-09-04T15:01:02.755Z,98379.41
2022-09-04T15:03:41.172Z,98382.88
2022-09-04T15:06:22.619Z,98381.72
2022-09-04T15:08:56.904Z,98372.50
2022-09-04T15:11:35.637Z,98377.19
2022-09-04T15:14:12.433Z,98378.16
2022-09-04T15:16:55.206Z,98370.03
2022-09-04T15:19:45.856Z,98378.03
2022-09-04T15:22:23.210Z,98377.94
2022-09-04T15:25:04.121Z,98373.91
2022-09-04T15:27:47.021Z,98371.84
2022-09-04T15:30:23.229Z,98366.13
2022-09-04T15:33:05.916Z,98370.34
2022-09-04T15:35:36.360Z,98365.31
2022-09-04T15:38:21.103Z,98369.19
2022-09-04T15:41:18.181Z,98382.84
2022-09-04T15:43:55.933Z,98383.13
2022-09-04T15:46:42.614Z,98373.16
2022-09-04T15:49:47.583Z,98384.16
2022-09-04T15:52:40.702Z,98373.38
2022-09-04T15:55:23.969Z,98367.00
2022-09-04T15:58:04.719Z,98363.00
2022-09-04T16:00:40.512Z,98361.69
2022-09-04T16:03:20.926Z,98366.06
2022-09-04T16:05:55.841Z,98364.59
2022-09-04T16:08:38.343Z,98363.88
2022-09-04T16:11:19.139Z,98360.44
2022-09-04T16:13:58.272Z,98357.03
2022-09-04T16:16:40.642Z,98354.13
2022-09-04T16:19:23.500Z,98363.50
2022-09-04T16:22:03.228Z,98357.97
2022-09-04T16:24:40.667Z,98354.06
2022-09-04T16:27:15.148Z,98348.97
2022-09-04T16:29:49.722Z,98352.81
2022-09-04T16:32:26.233Z,98355.56
2022-09-04T16:35:02.010Z,98356.72
2022-09-04T16:37:40.210Z,98351.72
2022-09-04T16:40:27.182Z,98349.47
2022-09-04T16:43:09.802Z,98349.59
2022-09-04T16:45:49.794Z,98351.03
2022-09-04T16:48:33.803Z,98344.44
2022-09-04T16:51:39.846Z,98338.91
2022-09-04T16:54:13.082Z,98349.16
2022-09-04T16:56:50.309Z,98341.44
2022-09-04T16:59:41.520Z,98346.34
2022-09-04T17:02:29.507Z,98349.63
2022-09-04T17:05:28.480Z,98356.19
2022-09-04T17:08:11.422Z,98351.94
2022-09-04T17:10:49.580Z,98347.97
2022-09-04T17:13:27.921Z,98351.00
2022-09-04T17:16:03.812Z,98354.28
2022-09-04T17:18:33.689Z,98350.84
2022-09-04T17:26:42.568Z,98359.25
2022-09-04T17:29:05.205Z,98357.22
2022-09-04T17:29:09.206Z,98360.25
2022-09-04T17:30:37.763Z,98362.44
2022-09-04T17:40:38.374Z,98368.06
2022-09-04T17:40:39.726Z,98365.16
2022-09-04T17:40:43.033Z,98371.91
2022-09-04T17:42:16.312Z,98367.16
2022-09-04T17:44:54.848Z,98372.50
2022-09-04T17:47:35.270Z,98372.56
2022-09-04T17:50:13.871Z,98373.09
2022-09-04T17:53:01.026Z,98372.28
2022-09-04T17:55:34.938Z,98372.06
2022-09-04T17:58:16.772Z,98374.47
2022-09-04T18:00:59.950Z,98374.47
2022-09-04T18:04:21.806Z,98376.34
2022-09-04T18:07:01.113Z,98383.81
2022-09-04T18:10:08.503Z,98386.75
2022-09-04T18:12:47.083Z,98384.91
2022-09-04T18:15:33.080Z,98393.13
2022-09-04T18:18:14.069Z,98400.06
2022-09-04T18:20:52.272Z,98405.91
2022-09-04T18:23:46.406Z,98408.25
2022-09-04T18:26:39.945Z,98404.25
2022-09-04T18:34:06.133Z,98414.38
2022-09-04T18:37:07.082Z,98426.88
2022-09-04T18:37:22.079Z,98428.38
2022-09-04T18:39:08.741Z,98418.19
2022-09-04T18:48:59.003Z,98429.63
2022-09-04T18:50:30.032Z,98430.13
2022-09-04T18:50:32.005Z,98438.06
2022-09-04T18:53:57.543Z,98433.38
2022-09-04T18:56:32.077Z,98437.59
2022-09-04T18:59:11.805Z,98440.16
2022-09-04T19:01:46.179Z,98444.06
2022-09-04T19:04:43.488Z,98442.94
2022-09-04T19:07:30.059Z,98451.94
2022-09-04T19:10:21.509Z,98459.50
2022-09-04T19:13:05.557Z,98464.72
2022-09-04T19:15:59.485Z,98467.06
2022-09-04T19:18:46.204Z,98474.47
2022-09-04T19:21:46.102Z,98479.47
2022-09-04T19:24:40.430Z,98471.66
2022-09-04T19:27:28.701Z,98477.09
2022-09-04T19:30:18.508Z,98475.31
2022-09-04T19:33:09.930Z,98475.72
2022-09-04T19:35:52.245Z,98485.56
2022-09-04T19:45:55.271Z,98480.91
2022-09-04T19:45:59.053Z,98481.28
2022-09-04T19:46:18.137Z,98480.19
2022-09-04T19:47:37.254Z,98468.69
2022-09-04T19:53:22.374Z,98474.69
2022-09-04T19:53:40.383Z,98477.94
2022-09-04T19:56:27.097Z,98477.94
2022-09-04T19:59:06.499Z,98482.38
2022-09-04T20:01:48.755Z,98483.59
2022-09-04T20:04:41.865Z,98478.53
2022-09-04T20:07:40.593Z,98490.06
2022-09-04T20:10:22.666Z,98489.47
2022-09-04T20:13:08.045Z,98489.16
2022-09-04T20:15:43.838Z,98491.41
2022-09-04T20:18:22.266Z,98495.84
2022-09-04T20:20:58.489Z,98504.75
2022-09-04T20:23:38.367Z,98501.78
2022-09-04T20:26:13.627Z,98508.75
2022-09-04T20:29:02.241Z,98500.72
2022-09-04T20:31:49.490Z,98500.25
2022-09-04T20:34:30.566Z,98512.53
2022-09-04T20:37:25.912Z,98514.06
2022-09-04T20:40:13.650Z,98513.00
2022-09-04T20:42:56.205Z,98507.34
2022-09-04T20:52:25.293Z,98515.31
2022-09-04T20:52:49.131Z,98511.44
2022-09-04T20:52:56.434Z,98513.06
2022-09-04T20:55:12.458Z,98512.38
2022-09-04T21:03:12.416Z,98512.75
2022-09-04T21:03:21.972Z,98514.25
2022-09-04T21:04:25.022Z,98510.44
2022-09-04T21:07:25.143Z,98514.94
2022-09-04T21:10:13.096Z,98519.69
2022-09-04T21:12:52.568Z,98514.16
2022-09-04T21:15:51.668Z,98520.41
2022-09-04T21:19:06.441Z,98520.41
2022-09-04T21:22:32.126Z,98521.69
2022-09-04T21:25:20.328Z,98516.91
2022-09-04T21:28:49.790Z,98519.34
2022-09-04T21:31:50.994Z,98525.94
2022-09-04T21:34:46.890Z,98527.28
2022-09-04T21:37:27.879Z,98540.09
2022-09-04T21:40:55.881Z,98540.31
2022-09-04T21:44:15.001Z,98541.22
2022-09-04T21:47:23.606Z,98542.50
2022-09-04T21:50:51.581Z,98545.03
2022-09-04T21:54:36.041Z,98551.22
2022-09-04T22:02:28.188Z,98555.25
2022-09-04T22:02:42.618Z,98561.75
2022-09-04T22:04:13.956Z,98558.41
2022-09-04T22:07:20.909Z,98556.16
2022-09-04T22:13:33.615Z,98563.09
2022-09-04T22:13:42.622Z,98550.88
2022-09-04T22:16:34.497Z,98556.63
2022-09-04T22:19:44.576Z,98566.13
2022-09-04T22:22:47.995Z,98559.22
2022-09-04T22:25:46.954Z,98565.78
2022-09-04T22:29:22.055Z,98556.34
2022-09-04T22:32:57.741Z,98561.66
2022-09-04T22:36:13.614Z,98564.25
2022-09-04T22:39:11.238Z,98560.41
2022-09-04T22:42:27.190Z,98562.13
2022-09-04T22:45:35.245Z,98567.50
2022-09-04T22:48:37.860Z,98557.44
2022-09-04T22:51:32.749Z,98566.84
2022-09-04T22:54:38.314Z,98561.53
2022-09-04T22:57:14.397Z,98567.72
2022-09-04T23:00:12.221Z,98568.44
2022-09-04T23:12:08.152Z,98575.75
2022-09-04T23:13:51.281Z,98574.09
2022-09-04T23:13:56.568Z,98585.72
2022-09-04T23:17:07.696Z,98578.44
2022-09-04T23:26:35.013Z,98571.25
2022-09-04T23:26:39.309Z,98572.16
2022-09-04T23:27:28.969Z,98561.97
2022-09-04T23:30:25.773Z,98565.03
2022-09-04T23:33:42.248Z,98567.75
2022-09-04T23:36:49.072Z,98569.38
2022-09-04T23:40:04.211Z,98565.69
2022-09-04T23:43:29.145Z,98560.81
2022-09-04T23:46:40.545Z,98557.81
2022-09-04T23:49:52.503Z,98562.13
2022-09-04T23:52:49.194Z,98559.69
2022-09-04T23:55:49.119Z,98564.59
2022-09-04T23:58:53.693Z,98565.03
